Time;durP1;ratioP1;P1;durP2;ratioP2;P2;SDS_P1;SDS_P2;PMS_P1;PMS_P2;Temp;Humidity;BMP_temperature;BMP_pressure;BME280_temperature;BME280_humidity;BME280_pressure;Samples;Min_cycle;Max_cycle;Signal;HPM_P1;HPM_P2
2021/10/29 00:00:32;;;;;;;20.23;14.87;;;;;;;5.91;97.02;100896.84;5008781;28;20203;-72
2021/10/29 00:03:02;;;;;;;23.93;16.47;;;;;;;5.88;96.92;100889.94;5006597;28;20311;-71
2021/10/29 00:05:29;;;;;;;22.10;15.73;;;;;;;5.85;97.21;100892.53;5009932;28;21019;-72
2021/10/29 00:07:55;;;;;;;21.53;14.80;;;;;;;5.79;97.19;100887.38;5009284;28;20204;-72
2021/10/29 00:10:23;;;;;;;25.50;15.33;;;;;;;5.75;97.61;100889.97;5010177;28;20288;-71
2021/10/29 00:12:50;;;;;;;23.63;15.40;;;;;;;5.66;97.88;100880.50;5005556;28;20284;-73
2021/10/29 00:15:18;;;;;;;22.00;14.80;;;;;;;5.63;98.42;100880.53;5007337;28;20746;-71
2021/10/29 00:17:44;;;;;;;23.87;16.57;;;;;;;5.56;98.41;100877.09;5008545;28;20233;-71
2021/10/29 00:20:12;;;;;;;24.13;16.67;;;;;;;5.55;98.31;100879.66;5007474;28;20206;-71
2021/10/29 00:22:38;;;;;;;21.23;14.77;;;;;;;5.52;98.62;100877.94;5011565;28;20226;-74
2021/10/29 00:25:05;;;;;;;24.23;15.47;;;;;;;5.49;99.07;100880.53;5007119;28;20200;-71
2021/10/29 00:27:32;;;;;;;22.93;15.53;;;;;;;5.44;99.14;100877.94;5006830;28;20200;-71
2021/10/29 00:29:59;;;;;;;23.73;15.73;;;;;;;5.40;99.57;100870.19;5005932;28;20204;-72
2021/10/29 00:32:29;;;;;;;22.90;15.60;;;;;;;5.39;99.61;100878.81;5005042;28;20717;-72
2021/10/29 00:34:56;;;;;;;25.27;16.43;;;;;;;5.37;99.74;100873.66;5003606;28;20299;-73
2021/10/29 00:37:22;;;;;;;24.20;15.23;;;;;;;5.33;99.87;100861.59;5009356;28;20218;-71
2021/10/29 00:39:49;;;;;;;23.23;15.83;;;;;;;5.31;99.96;100871.06;5003900;28;20200;-72
2021/10/29 00:42:15;;;;;;;25.67;17.00;;;;;;;5.26;100.00;100863.31;5003474;28;20235;-72
2021/10/29 00:44:42;;;;;;;23.10;15.23;;;;;;;5.23;100.00;100862.47;5006676;28;20200;-71
2021/10/29 00:47:08;;;;;;;21.83;15.33;;;;;;;5.19;100.00;100863.28;5003886;28;20201;-73
2021/10/29 00:49:36;;;;;;;22.37;15.50;;;;;;;5.16;100.00;100866.75;5004015;28;20205;-71
2021/10/29 00:52:03;;;;;;;21.13;15.70;;;;;;;5.11;100.00;100853.81;5003936;28;20231;-71
2021/10/29 00:54:29;;;;;;;25.33;15.60;;;;;;;5.08;100.00;100852.97;5005737;28;20209;-72
2021/10/29 00:56:56;;;;;;;25.13;15.80;;;;;;;5.01;100.00;100852.09;5005207;28;20227;-71
2021/10/29 00:59:23;;;;;;;21.73;15.63;;;;;;;4.98;100.00;100849.53;4999492;28;20205;-73
2021/10/29 01:01:49;;;;;;;23.73;15.83;;;;;;;4.92;100.00;100847.81;5006943;28;20231;-73
2021/10/29 01:04:17;;;;;;;22.27;15.90;;;;;;;4.89;100.00;100845.22;5006264;28;20204;-73
2021/10/29 01:06:46;;;;;;;25.83;16.67;;;;;;;4.84;100.00;100843.50;5011529;28;20204;-72
2021/10/29 01:09:13;;;;;;;25.50;16.43;;;;;;;4.80;100.00;100842.63;5003560;28;20216;-73
2021/10/29 01:11:40;;;;;;;25.00;15.83;;;;;;;4.80;100.00;100839.16;5005984;28;20229;-71
2021/10/29 01:14:06;;;;;;;23.63;17.10;;;;;;;4.74;100.00;100843.47;5006043;28;20208;-73
2021/10/29 01:16:33;;;;;;;22.10;16.00;;;;;;;4.72;100.00;100841.75;5010159;28;20206;-71
2021/10/29 01:18:59;;;;;;;25.00;17.50;;;;;;;4.65;100.00;100838.28;5005628;28;20209;-73
2021/10/29 01:21:27;;;;;;;25.43;16.43;;;;;;;4.64;100.00;100835.72;5006026;28;20690;-73
2021/10/29 01:23:54;;;;;;;24.80;15.77;;;;;;;4.60;100.00;100834.00;5003552;28;20224;-72
2021/10/29 01:26:20;;;;;;;24.93;16.37;;;;;;;4.55;100.00;100833.97;5012034;28;20201;-71
2021/10/29 01:28:47;;;;;;;27.17;16.87;;;;;;;4.54;100.00;100840.00;5008681;28;20198;-71
2021/10/29 01:31:15;;;;;;;23.90;16.40;;;;;;;4.48;100.00;100840.81;5005925;28;20224;-71
2021/10/29 01:33:42;;;;;;;21.90;15.77;;;;;;;4.43;100.00;100834.78;5002538;28;20205;-71
2021/10/29 01:36:09;;;;;;;24.93;16.83;;;;;;;4.38;100.00;100835.66;5005010;28;20657;-72
2021/10/29 01:38:38;;;;;;;26.07;16.90;;;;;;;4.36;100.00;100838.22;5004496;28;20463;-71
2021/10/29 01:41:06;;;;;;;26.83;17.23;;;;;;;4.32;100.00;100832.19;5006763;28;20220;-71
2021/10/29 01:43:39;;;;;;;26.20;16.17;;;;;;;4.27;100.00;100838.19;5003532;28;20197;-71
2021/10/29 01:46:05;;;;;;;24.63;16.47;;;;;;;4.26;100.00;100823.59;5004168;28;20208;-71
2021/10/29 01:48:32;;;;;;;23.33;16.40;;;;;;;4.22;100.00;100824.41;5008332;28;20200;-71
2021/10/29 01:50:58;;;;;;;26.47;16.80;;;;;;;4.17;100.00;100819.25;5002894;28;20212;-71
2021/10/29 01:53:25;;;;;;;23.77;16.73;;;;;;;4.14;100.00;100825.25;5007368;28;20200;-72
2021/10/29 01:55:52;;;;;;;25.07;16.87;;;;;;;4.16;100.00;100810.63;5003993;28;20212;-74
2021/10/29 01:58:19;;;;;;;27.17;17.90;;;;;;;4.16;100.00;100809.78;5009846;28;20772;-72
2021/10/29 02:00:45;;;;;;;29.00;18.90;;;;;;;4.11;100.00;100804.59;5008086;28;20294;-71
2021/10/29 02:03:12;;;;;;;22.37;16.60;;;;;;;4.11;100.00;100807.16;5006818;28;20298;-70
2021/10/29 02:05:39;;;;;;;27.27;17.97;;;;;;;4.08;100.00;100795.97;5005069;28;20200;-71
2021/10/29 02:08:06;;;;;;;23.70;17.60;;;;;;;4.07;100.00;100796.84;5014211;28;20196;-72
2021/10/29 02:10:32;;;;;;;27.73;18.03;;;;;;;4.09;100.00;100795.13;5006942;28;20204;-71
2021/10/29 02:13:01;;;;;;;25.73;17.70;;;;;;;4.03;100.00;100787.34;5004003;28;20609;-71
2021/10/29 02:15:27;;;;;;;28.93;18.60;;;;;;;4.08;100.00;100789.13;5005922;28;20213;-73
2021/10/29 02:17:54;;;;;;;28.03;18.10;;;;;;;4.07;100.00;100789.97;5022994;28;20212;-71
2021/10/29 02:20:20;;;;;;;27.63;19.33;;;;;;;4.04;100.00;100787.38;5002090;28;20847;-71
2021/10/29 02:22:47;;;;;;;31.40;17.93;;;;;;;4.05;100.00;100793.41;5002529;28;20224;-71
2021/10/29 02:25:13;;;;;;;26.93;17.97;;;;;;;4.01;100.00;100789.97;5001599;28;20209;-72
2021/10/29 02:27:40;;;;;;;26.00;17.33;;;;;;;3.97;100.00;100794.25;5005487;28;20212;-71
2021/10/29 02:30:09;;;;;;;26.67;17.63;;;;;;;3.92;100.00;100795.06;5000002;28;20216;-73
2021/10/29 02:32:35;;;;;;;27.87;18.20;;;;;;;3.85;100.00;100789.00;4997564;28;20217;-71
2021/10/29 02:35:01;;;;;;;26.10;17.47;;;;;;;3.80;100.00;100790.75;5002821;28;20797;-71
2021/10/29 02:37:28;;;;;;;25.93;17.73;;;;;;;3.74;100.00;100794.13;5008058;28;21373;-71
2021/10/29 02:39:56;;;;;;;26.77;17.43;;;;;;;3.66;100.00;100794.94;5004318;28;20215;-71
2021/10/29 02:42:22;;;;;;;26.73;18.20;;;;;;;3.63;100.00;100790.66;5002340;28;20597;-71
2021/10/29 02:44:48;;;;;;;26.43;18.23;;;;;;;3.58;100.00;100802.66;4997522;28;20690;-72
2021/10/29 02:47:16;;;;;;;26.63;17.37;;;;;;;3.53;100.00;100802.63;5004823;28;20209;-72
2021/10/29 02:49:42;;;;;;;27.23;17.63;;;;;;;3.47;100.00;100802.59;5002467;28;20713;-70
2021/10/29 02:52:09;;;;;;;28.07;18.40;;;;;;;3.44;100.00;100796.56;5010661;28;20233;-72
2021/10/29 02:54:36;;;;;;;29.30;18.67;;;;;;;3.47;100.00;100796.59;5006494;28;20240;-71
2021/10/29 02:57:02;;;;;;;28.07;18.47;;;;;;;3.46;100.00;100798.28;5006968;28;20205;-71
2021/10/29 02:59:29;;;;;;;28.37;18.27;;;;;;;3.40;100.00;100798.25;5003773;28;20688;-71
2021/10/29 03:01:55;;;;;;;29.87;19.17;;;;;;;3.37;100.00;100798.22;5002065;28;20716;-75
2021/10/29 03:04:23;;;;;;;31.43;19.90;;;;;;;3.36;100.00;100799.06;5006812;28;20689;-73
2021/10/29 03:06:50;;;;;;;29.93;18.97;;;;;;;3.36;100.00;100799.97;5008427;28;20212;-74
2021/10/29 03:09:16;;;;;;;30.63;19.43;;;;;;;3.26;100.00;100793.00;5014132;28;20221;-73
2021/10/29 03:11:43;;;;;;;30.13;20.40;;;;;;;3.24;100.00;100797.31;5003888;28;20232;-75
2021/10/29 03:14:10;;;;;;;30.50;19.47;;;;;;;3.21;100.00;100797.28;5008902;28;20763;-74
2021/10/29 03:16:36;;;;;;;28.97;20.17;;;;;;;3.16;100.00;100794.66;5000262;28;20296;-75
2021/10/29 03:19:03;;;;;;;31.40;20.70;;;;;;;3.17;100.00;100800.69;5016694;28;20208;-73
2021/10/29 03:21:31;;;;;;;33.47;20.50;;;;;;;3.19;100.00;100797.25;5003976;28;20239;-73
2021/10/29 03:23:57;;;;;;;32.33;20.17;;;;;;;3.15;100.00;100799.78;5010061;28;20215;-73
2021/10/29 03:26:24;;;;;;;33.20;20.50;;;;;;;3.14;100.00;100800.66;5008539;28;20307;-74
2021/10/29 03:28:50;;;;;;;28.50;19.17;;;;;;;3.16;100.00;100793.78;5009433;28;20237;-73
2021/10/29 03:31:17;;;;;;;32.30;19.97;;;;;;;3.04;100.00;100799.72;5003202;28;20593;-74
2021/10/29 03:33:43;;;;;;;32.07;19.70;;;;;;;3.02;100.00;100807.44;5010896;28;20227;-74
2021/10/29 03:36:10;;;;;;;31.37;18.63;;;;;;;3.04;100.00;100804.88;5007368;28;20215;-73
2021/10/29 03:38:44;;;;;;;29.07;18.93;;;;;;;2.88;100.00;100803.03;5004961;28;20215;-73
2021/10/29 03:41:14;;;;;;;27.57;17.50;;;;;;;2.83;100.00;100798.72;5006583;28;20314;-73
2021/10/29 03:43:44;;;;;;;31.20;18.43;;;;;;;2.78;100.00;100809.81;5008750;28;20578;-73
2021/10/29 03:46:15;;;;;;;29.37;17.77;;;;;;;2.77;100.00;100803.81;5012784;28;20218;-73
2021/10/29 03:48:48;;;;;;;27.83;17.63;;;;;;;2.87;100.00;100802.19;5009489;28;20780;-73
2021/10/29 03:51:19;;;;;;;27.37;17.67;;;;;;;2.84;100.00;100799.56;5005014;28;20224;-73
2021/10/29 03:53:51;;;;;;;26.23;17.80;;;;;;;2.62;100.00;100799.38;5001928;28;20212;-73
2021/10/29 03:56:19;;;;;;;26.37;16.83;;;;;;;2.60;100.00;100800.22;5009047;28;20235;-73
2021/10/29 03:58:46;;;;;;;27.83;17.73;;;;;;;2.61;100.00;100794.22;5008532;28;20224;-74
2021/10/29 04:01:13;;;;;;;28.30;17.87;;;;;;;2.57;100.00;100795.91;5005173;28;20319;-73
2021/10/29 04:03:39;;;;;;;28.17;18.40;;;;;;;2.49;100.00;100788.97;5008534;28;20215;-73
2021/10/29 04:06:06;;;;;;;29.23;18.33;;;;;;;2.41;100.00;100789.75;5006896;28;20231;-75
2021/10/29 04:08:32;;;;;;;25.23;17.50;;;;;;;2.24;100.00;100799.00;5006733;28;20215;-73
2021/10/29 04:11:00;;;;;;;26.83;17.53;;;;;;;2.30;100.00;100801.63;5007824;28;20218;-73
2021/10/29 04:13:33;;;;;;;26.30;17.73;;;;;;;2.35;100.00;100794.81;5003950;28;20623;-73
2021/10/29 04:16:00;;;;;;;32.30;19.70;;;;;;;2.31;100.00;100794.78;5011290;28;20653;-76
2021/10/29 04:18:27;;;;;;;32.83;19.53;;;;;;;2.23;100.00;100790.44;5009685;28;20680;-73
2021/10/29 04:20:53;;;;;;;33.67;21.40;;;;;;;2.19;100.00;100792.94;5009051;28;20215;-73
2021/10/29 04:23:19;;;;;;;34.63;22.07;;;;;;;2.20;100.00;100790.38;5003264;28;20230;-75
2021/10/29 04:25:46;;;;;;;37.93;22.70;;;;;;;2.19;100.00;100790.38;5005657;28;20204;-73
2021/10/29 04:28:14;;;;;;;33.13;21.83;;;;;;;2.23;100.00;100782.72;5002145;28;20585;-73
2021/10/29 04:30:43;;;;;;;37.40;23.77;;;;;;;2.27;100.00;100783.59;5004823;28;20209;-73
2021/10/29 04:33:10;;;;;;;38.67;23.73;;;;;;;2.28;100.00;100777.59;4999906;28;20208;-74
2021/10/29 04:35:40;;;;;;;42.33;25.30;;;;;;;2.21;100.00;100783.53;5009496;28;20215;-73
2021/10/29 04:38:09;;;;;;;39.97;24.10;;;;;;;2.25;100.00;100785.28;5004506;28;20197;-74
2021/10/29 04:40:36;;;;;;;47.30;26.10;;;;;;;2.25;100.00;100785.28;5016810;28;20203;-73
2021/10/29 04:43:03;;;;;;;44.70;26.03;;;;;;;2.22;100.00;100782.69;5005616;28;20225;-73
2021/10/29 04:45:32;;;;;;;46.23;26.50;;;;;;;2.26;100.00;100777.56;5007641;28;20214;-73
2021/10/29 04:47:59;;;;;;;44.80;25.80;;;;;;;2.24;100.00;100773.28;5004348;28;20224;-73
2021/10/29 04:50:25;;;;;;;48.97;28.13;;;;;;;2.32;100.00;100773.34;5006026;28;20205;-75
2021/10/29 04:52:52;;;;;;;45.83;27.13;;;;;;;2.30;100.00;100775.91;5003329;28;20224;-74
2021/10/29 04:55:19;;;;;;;45.73;26.23;;;;;;;2.31;100.00;100780.22;5011441;28;20719;-73
2021/10/29 04:57:45;;;;;;;45.13;27.50;;;;;;;2.32;100.00;100778.47;5005372;28;20447;-75
2021/10/29 05:00:13;;;;;;;42.97;26.70;;;;;;;2.30;100.00;100775.91;5003584;28;20225;-74
2021/10/29 05:02:40;;;;;;;52.37;29.57;;;;;;;2.24;100.00;100775.84;5000204;28;20501;-73
2021/10/29 05:05:08;;;;;;;48.10;28.73;;;;;;;2.25;100.00;100767.25;5005655;28;20295;-73
2021/10/29 05:07:35;;;;;;;48.77;28.27;;;;;;;2.25;100.00;100763.00;4996989;28;20230;-72
2021/10/29 05:10:03;;;;;;;48.73;28.67;;;;;;;2.24;100.00;100768.13;5007126;28;20207;-73
2021/10/29 05:12:29;;;;;;;50.83;29.63;;;;;;;2.31;100.00;100767.34;5008158;28;20233;-73
2021/10/29 05:14:56;;;;;;;52.63;30.67;;;;;;;2.44;100.00;100774.31;5005260;28;20213;-73
2021/10/29 05:17:22;;;;;;;60.53;31.90;;;;;;;2.50;100.00;100773.53;5008123;28;20200;-73
2021/10/29 05:19:50;;;;;;;59.47;33.00;;;;;;;2.51;100.00;100777.81;5003242;28;20204;-73
2021/10/29 05:22:16;;;;;;;59.17;33.03;;;;;;;2.60;100.00;100775.34;5003282;28;20218;-74
2021/10/29 05:24:43;;;;;;;57.00;32.90;;;;;;;2.69;100.00;100768.53;5005402;28;20213;-71
2021/10/29 05:27:09;;;;;;;60.87;34.70;;;;;;;2.78;100.00;100772.06;5001464;28;20282;-72
2021/10/29 05:29:36;;;;;;;62.47;33.27;;;;;;;2.90;100.00;100780.72;5004654;28;20221;-71
2021/10/29 05:32:02;;;;;;;68.07;35.60;;;;;;;2.91;100.00;100778.16;5004015;28;20290;-71
2021/10/29 05:34:29;;;;;;;58.43;34.47;;;;;;;2.94;100.00;100770.47;5005744;28;20291;-71
2021/10/29 05:36:57;;;;;;;66.60;34.83;;;;;;;3.02;100.00;100778.22;5010628;28;20196;-71
2021/10/29 05:39:24;;;;;;;69.40;36.97;;;;;;;3.06;100.00;100774.84;5000844;28;20728;-71
2021/10/29 05:41:50;;;;;;;95.37;47.77;;;;;;;3.10;100.00;100781.75;5005382;28;20235;-71
2021/10/29 05:44:18;;;;;;;98.93;51.30;;;;;;;3.23;100.00;100775.78;5001563;28;20527;-71
2021/10/29 05:46:46;;;;;;;63.87;37.50;;;;;;;3.30;100.00;100768.97;5011121;28;20282;-73
2021/10/29 05:49:13;;;;;;;74.80;39.57;;;;;;;3.39;100.00;100781.94;5005458;28;20307;-74
2021/10/29 05:51:44;;;;;;;71.80;37.93;;;;;;;3.43;100.00;100780.25;5006813;28;20228;-71
2021/10/29 05:54:24;;;;;;;70.43;38.50;;;;;;;3.43;100.00;100780.25;5004000;28;20575;-70
2021/10/29 05:56:50;;;;;;;64.63;36.17;;;;;;;3.56;100.00;100774.28;5007687;28;20208;-71
2021/10/29 05:59:17;;;;;;;68.67;36.53;;;;;;;3.57;100.00;100778.59;5003347;28;20696;-72
2021/10/29 06:01:44;;;;;;;61.13;34.20;;;;;;;3.57;100.00;100778.59;5020982;28;20766;-71
2021/10/29 06:04:11;;;;;;;68.13;35.87;;;;;;;3.62;100.00;100790.63;5003241;28;20232;-72
2021/10/29 06:06:37;;;;;;;60.77;34.00;;;;;;;3.59;100.00;100794.94;5008484;28;20247;-72
2021/10/29 06:09:03;;;;;;;54.83;32.10;;;;;;;3.55;100.00;100798.34;5004337;28;20709;-71
2021/10/29 06:11:31;;;;;;;54.53;31.60;;;;;;;3.58;100.00;100789.75;5009662;28;20701;-74
2021/10/29 06:13:58;;;;;;;51.13;31.73;;;;;;;3.58;100.00;100785.44;5007927;28;20829;-71
2021/10/29 06:16:25;;;;;;;50.17;29.87;;;;;;;3.67;100.00;100786.38;5002119;28;20207;-73
2021/10/29 06:18:52;;;;;;;50.63;30.13;;;;;;;3.67;100.00;100784.63;5012910;28;20263;-75
2021/10/29 06:21:28;;;;;;;52.50;29.07;;;;;;;3.72;100.00;100784.66;5003758;28;20224;-73
2021/10/29 06:23:59;;;;;;;48.80;28.93;;;;;;;3.75;100.00;100779.53;5022082;28;20204;-73
2021/10/29 06:26:27;;;;;;;44.67;27.07;;;;;;;3.79;100.00;100782.13;5006681;28;20438;-73
2021/10/29 06:28:55;;;;;;;47.60;27.83;;;;;;;3.76;100.00;100789.88;5006169;28;20315;-73
2021/10/29 06:31:22;;;;;;;46.10;27.23;;;;;;;3.77;100.00;100786.41;5001606;28;20251;-73
2021/10/29 06:33:49;;;;;;;47.20;28.73;;;;;;;3.82;100.00;100790.72;5010937;28;20235;-74
2021/10/29 06:36:15;;;;;;;44.27;27.70;;;;;;;3.86;100.00;100793.31;5004702;28;20208;-73
2021/10/29 06:38:43;;;;;;;53.03;28.83;;;;;;;3.88;100.00;100786.44;5008056;28;20200;-73
2021/10/29 06:41:09;;;;;;;41.73;25.97;;;;;;;3.91;100.00;100789.03;5011288;28;20267;-73
2021/10/29 06:43:39;;;;;;;41.07;25.73;;;;;;;3.90;100.00;100789.88;5000609;28;20215;-73
2021/10/29 06:46:22;;;;;;;41.17;25.07;;;;;;;3.92;100.00;100795.06;5005744;28;20209;-73
2021/10/29 06:48:54;;;;;;;39.73;25.90;;;;;;;3.97;100.00;100798.53;5002976;28;20672;-74
2021/10/29 06:59:49;;;;;;;40.23;26.70;;;;;;;4.27;100.00;100800.34;5005808;28;20283;-73
2021/10/29 07:02:50;;;;;;;37.70;25.13;;;;;;;4.33;100.00;100812.41;5006231;28;20232;-73
2021/10/29 07:05:31;;;;;;;43.07;25.87;;;;;;;4.43;100.00;100797.78;5004842;28;20286;-73
2021/10/29 07:40:48;;;;;;;35.03;23.17;;;;;;;5.79;100.00;100816.66;5003645;28;20208;-74
2021/10/29 07:43:23;;;;;;;38.03;23.47;;;;;;;5.88;100.00;100824.38;5008997;28;20204;-73
2021/10/29 07:45:50;;;;;;;33.93;22.87;;;;;;;5.96;100.00;100819.19;5000404;28;20634;-75
2021/10/29 07:48:16;;;;;;;35.77;22.30;;;;;;;6.06;100.00;100820.91;5008281;28;20287;-73
2021/10/29 07:50:44;;;;;;;30.93;22.20;;;;;;;6.14;100.00;100820.84;5005351;28;20914;-73
2021/10/29 07:53:10;;;;;;;32.63;21.63;;;;;;;6.21;100.00;100827.75;5002478;28;20201;-73
2021/10/29 07:55:37;;;;;;;35.90;22.33;;;;;;;6.29;100.00;100831.13;5011862;28;20213;-73
2021/10/29 07:58:03;;;;;;;31.87;21.67;;;;;;;6.45;99.18;100834.50;5005283;28;20212;-74
2021/10/29 08:00:31;;;;;;;30.53;21.73;;;;;;;6.54;97.99;100831.84;5005087;28;20200;-74
2021/10/29 08:03:00;;;;;;;30.03;21.97;;;;;;;6.64;97.59;100832.66;5010259;28;20879;-73
2021/10/29 08:05:26;;;;;;;36.57;22.33;;;;;;;6.69;97.95;100832.66;5012597;28;20221;-74
2021/10/29 08:07:55;;;;;;;30.13;21.33;;;;;;;6.74;97.17;100831.72;5004559;28;20205;-73
2021/10/29 08:10:22;;;;;;;30.60;21.93;;;;;;;6.85;96.74;100842.03;5004039;28;20260;-74
2021/10/29 08:12:48;;;;;;;33.20;22.90;;;;;;;6.99;95.43;100842.78;5003864;28;20229;-74
2021/10/29 08:15:15;;;;;;;30.90;21.83;;;;;;;7.08;96.06;100841.84;5005091;28;20204;-73
2021/10/29 08:17:42;;;;;;;36.00;23.40;;;;;;;7.19;93.72;100846.94;5004062;28;20220;-74
2021/10/29 08:20:11;;;;;;;33.40;24.13;;;;;;;7.25;94.68;100841.69;5010254;28;20208;-76
2021/10/29 08:22:39;;;;;;;29.60;21.40;;;;;;;7.29;94.30;100843.38;5001560;28;20599;-74
2021/10/29 08:25:08;;;;;;;32.23;22.80;;;;;;;7.37;93.97;100846.78;5010489;28;20296;-73
2021/10/29 08:27:35;;;;;;;28.07;20.77;;;;;;;7.46;93.81;100845.84;5006258;28;20211;-75
2021/10/29 08:30:01;;;;;;;34.20;23.07;;;;;;;7.56;92.45;100844.88;5006383;28;20247;-73
2021/10/29 08:32:28;;;;;;;33.73;23.17;;;;;;;7.66;92.08;100847.38;5000536;28;20319;-74
2021/10/29 08:34:55;;;;;;;33.33;22.93;;;;;;;7.74;92.28;100843.81;5005001;28;20215;-73
2021/10/29 08:37:26;;;;;;;35.17;21.10;;;;;;;7.84;90.91;100841.09;5005981;28;20732;-74
2021/10/29 08:39:53;;;;;;;34.10;22.13;;;;;;;7.89;90.55;100837.56;5011609;28;20251;-73
2021/10/29 08:42:21;;;;;;;33.87;20.17;;;;;;;7.93;90.75;100836.69;5009421;28;20232;-76
2021/10/29 08:44:47;;;;;;;27.90;19.70;;;;;;;8.02;89.06;100838.31;5002433;28;20224;-74
2021/10/29 08:47:14;;;;;;;30.53;21.90;;;;;;;8.11;88.67;100834.75;5004207;28;20232;-74
2021/10/29 08:49:42;;;;;;;25.80;19.67;;;;;;;8.21;88.06;100836.31;5007970;28;20216;-74
2021/10/29 08:52:10;;;;;;;29.33;20.53;;;;;;;8.30;86.69;100840.53;5003529;28;20232;-74
2021/10/29 08:54:36;;;;;;;26.53;20.37;;;;;;;8.33;87.36;100830.94;5005369;28;20264;-73
2021/10/29 08:57:03;;;;;;;27.73;20.67;;;;;;;8.46;86.42;100836.00;5007341;28;20568;-73
2021/10/29 08:59:32;;;;;;;25.77;20.03;;;;;;;8.49;86.49;100830.78;5004901;28;20204;-74
2021/10/29 09:02:04;;;;;;;27.93;20.20;;;;;;;8.50;86.06;100843.75;5010671;28;20226;-74
2021/10/29 09:04:38;;;;;;;24.83;18.90;;;;;;;8.55;86.52;100832.44;5005382;28;20200;-76
2021/10/29 09:07:18;;;;;;;24.37;18.90;;;;;;;8.66;85.63;100838.34;5002387;28;20199;-77
2021/10/29 09:10:10;;;;;;;31.30;18.93;;;;;;;8.70;85.28;100840.00;5001726;28;20252;-74
2021/10/29 09:32:29;;;;;;;25.63;18.33;;;;;;;9.39;81.42;100819.81;5003363;28;20223;-74
2021/10/29 09:35:01;;;;;;;25.83;18.10;;;;;;;9.48;81.52;100819.66;5000360;28;20207;-74
2021/10/29 09:37:35;;;;;;;28.10;17.23;;;;;;;9.51;80.18;100824.78;5010371;28;20201;-76
2021/10/29 09:40:14;;;;;;;24.80;17.63;;;;;;;9.58;79.84;100818.56;5005156;28;20268;-73
2021/10/29 09:42:41;;;;;;;25.50;17.50;;;;;;;9.63;79.72;100816.75;5006330;28;20257;-73
2021/10/29 09:45:13;;;;;;;23.30;17.37;;;;;;;9.69;79.33;100813.16;5007037;28;20293;-75
2021/10/29 09:47:46;;;;;;;27.07;18.30;;;;;;;9.75;79.52;100817.41;5003144;28;20323;-74
2021/10/29 09:50:23;;;;;;;26.03;17.93;;;;;;;9.82;79.10;100819.00;5004414;28;20239;-73
2021/10/29 09:53:09;;;;;;;25.97;18.40;;;;;;;9.89;78.94;100823.19;5005059;28;20831;-74
2021/10/29 09:58:18;;;;;;;23.83;17.67;;;;;;;10.09;78.49;100820.16;4999668;28;20206;-75
2021/10/29 10:00:45;;;;;;;24.87;16.90;;;;;;;10.16;78.37;100821.75;5003030;28;20898;-73
2021/10/29 10:03:16;;;;;;;24.00;17.20;;;;;;;10.23;77.62;100810.31;4999837;28;20213;-73
2021/10/29 10:05:43;;;;;;;22.80;17.73;;;;;;;10.31;77.45;100814.53;5000562;28;20314;-74
2021/10/29 10:08:11;;;;;;;22.87;17.33;;;;;;;10.38;76.95;100805.69;5019016;28;20605;-74
2021/10/29 10:10:39;;;;;;;26.17;16.57;;;;;;;10.45;76.08;100803.78;5002587;28;20649;-74
2021/10/29 10:13:06;;;;;;;22.40;17.23;;;;;;;10.46;76.13;100800.31;5009618;28;20228;-74
2021/10/29 10:15:35;;;;;;;20.20;15.23;;;;;;;10.56;74.75;100796.59;5008889;28;20210;-74
2021/10/29 10:18:02;;;;;;;25.87;17.33;;;;;;;10.60;75.42;100803.44;5012008;28;20559;-75
2021/10/29 10:20:31;;;;;;;19.27;15.67;;;;;;;10.66;74.91;100795.50;5005977;28;20204;-73
2021/10/29 10:23:01;;;;;;;21.17;15.27;;;;;;;10.74;74.27;100788.31;5007853;28;20224;-73
2021/10/29 10:25:39;;;;;;;22.73;15.63;;;;;;;10.78;76.02;100781.28;5007410;28;20289;-75
2021/10/29 10:42:31;;;;;;;19.27;12.13;;;;;;;11.24;71.69;100780.13;5023687;28;21356;-73
2021/10/29 10:45:04;;;;;;;17.83;13.73;;;;;;;11.35;70.83;100775.47;5003512;28;21607;-75
2021/10/29 10:47:35;;;;;;;20.63;16.53;;;;;;;11.36;71.25;100778.94;5011442;28;20205;-73
2021/10/29 10:50:10;;;;;;;21.03;15.73;;;;;;;11.48;71.91;100778.59;5006272;28;20233;-74
2021/10/29 10:53:30;;;;;;;18.90;14.13;;;;;;;11.51;71.02;100772.44;5013881;28;20231;-73
2021/10/29 10:58:51;;;;;;;16.70;13.83;;;;;;;11.58;70.86;100767.91;4999726;28;20241;-73
2021/10/29 11:01:41;;;;;;;21.50;14.83;;;;;;;11.69;70.34;100765.84;5005891;28;20227;-73
2021/10/29 11:04:36;;;;;;;21.27;14.20;;;;;;;11.82;69.94;100763.72;5011175;28;20288;-74
2021/10/29 11:07:11;;;;;;;22.57;14.20;;;;;;;11.80;70.78;100752.47;5003727;28;20242;-75
2021/10/29 11:09:57;;;;;;;16.33;13.03;;;;;;;11.86;69.21;100758.38;5001226;28;21033;-74
2021/10/29 11:12:23;;;;;;;20.13;12.97;;;;;;;11.99;69.05;100758.06;5010468;28;20226;-73
2021/10/29 11:15:06;;;;;;;17.23;13.43;;;;;;;12.05;70.16;100745.66;5008762;28;20711;-73
2021/10/29 11:17:41;;;;;;;16.80;12.80;;;;;;;12.07;69.37;100741.25;5005757;28;20232;-74
2021/10/29 11:20:09;;;;;;;17.43;13.07;;;;;;;12.21;67.50;100753.03;5004517;28;20785;-73
2021/10/29 11:22:43;;;;;;;18.73;12.90;;;;;;;12.19;67.73;100740.00;5007482;28;20226;-74
2021/10/29 11:25:13;;;;;;;16.13;12.70;;;;;;;12.21;68.55;100738.22;5018860;28;20201;-73
2021/10/29 11:27:41;;;;;;;18.60;12.63;;;;;;;12.22;68.32;100739.91;5005987;28;20206;-74
2021/10/29 11:30:08;;;;;;;16.80;13.10;;;;;;;12.31;67.95;100739.63;5010570;28;20226;-73
2021/10/29 11:32:35;;;;;;;19.07;13.17;;;;;;;12.36;67.90;100741.25;5004791;28;20228;-74
2021/10/29 11:35:02;;;;;;;20.80;12.33;;;;;;;12.41;67.56;100727.09;5005439;28;20217;-76
2021/10/29 11:37:32;;;;;;;17.30;11.93;;;;;;;12.41;68.38;100723.66;5008429;28;20288;-72
2021/10/29 11:40:00;;;;;;;19.07;12.53;;;;;;;12.51;66.97;100730.28;5004639;28;20206;-74
2021/10/29 11:42:28;;;;;;;15.93;11.90;;;;;;;12.53;66.42;100717.16;5002795;28;20224;-73
2021/10/29 11:44:57;;;;;;;28.33;21.73;;;;;;;12.61;65.46;100720.38;5003762;28;20203;-75
2021/10/29 11:47:24;;;;;;;14.60;11.00;;;;;;;12.61;66.18;100715.13;5004516;28;20704;-74
2021/10/29 11:49:50;;;;;;;13.77;11.40;;;;;;;12.61;66.41;100709.91;5005462;28;20634;-75
2021/10/29 11:52:19;;;;;;;13.67;10.67;;;;;;;12.71;65.38;100706.09;5003167;28;20808;-74
2021/10/29 11:54:48;;;;;;;15.33;10.37;;;;;;;12.73;66.09;100693.81;5003883;28;20215;-73
2021/10/29 11:57:29;;;;;;;15.37;10.57;;;;;;;12.80;65.74;100702.31;5003697;28;20230;-73
2021/10/29 12:08:09;;;;;;;15.23;10.60;;;;;;;12.93;65.77;100685.28;5002254;28;20202;-76
2021/10/29 12:10:41;;;;;;;13.33;10.20;;;;;;;12.99;65.26;100689.44;5002525;28;20227;-74
2021/10/29 12:13:09;;;;;;;16.13;11.10;;;;;;;13.07;64.69;100690.03;5003336;28;20324;-76
2021/10/29 12:15:37;;;;;;;14.87;10.20;;;;;;;13.07;64.80;100684.81;5000998;28;20201;-75
2021/10/29 12:18:05;;;;;;;13.93;10.50;;;;;;;13.10;64.76;100674.19;5001730;28;20355;-74
2021/10/29 12:20:36;;;;;;;13.13;10.00;;;;;;;13.17;64.55;100673.06;5002409;28;20201;-75
2021/10/29 12:23:07;;;;;;;14.43;10.50;;;;;;;13.22;65.30;100671.13;5003119;28;20235;-72
2021/10/29 12:25:38;;;;;;;15.87;10.40;;;;;;;13.18;64.65;100666.94;5003105;28;20237;-77
2021/10/29 12:28:08;;;;;;;12.77;10.37;;;;;;;13.15;64.34;100664.41;5011990;28;20300;-74
2021/10/29 12:30:38;;;;;;;13.67;10.47;;;;;;;13.18;64.76;100655.63;4999418;28;20330;-77
2021/10/29 13:01:27;;;;;;;14.60;10.60;;;;;;;13.33;62.33;100634.16;4997025;28;20260;-75
2021/10/29 13:03:58;;;;;;;14.93;10.60;;;;;;;13.34;62.28;100640.22;4998671;28;20199;-76
2021/10/29 13:06:30;;;;;;;13.93;9.80;;;;;;;13.38;62.12;100628.72;4998275;28;20849;-75
2021/10/29 13:08:57;;;;;;;12.30;9.70;;;;;;;13.36;61.85;100626.16;5001103;28;20602;-73
2021/10/29 13:11:25;;;;;;;13.63;9.70;;;;;;;13.40;61.44;100619.91;5002967;28;20357;-74
2021/10/29 13:13:56;;;;;;;11.50;9.20;;;;;;;13.42;61.79;100612.84;4997024;28;20213;-77
2021/10/29 13:16:22;;;;;;;12.57;9.43;;;;;;;13.38;62.50;100611.22;5000795;28;20849;-74